sensor_id;sensor_type;location;lat;lon;timestamp;P1;durP1;ratioP1;P2;durP2;ratioP2
58581;SDS011;44361;51.476;5.700;2024-01-30T00:00:07;15.15;;;8.52;;
58581;SDS011;44361;51.476;5.700;2024-01-30T00:02:33;15.35;;;8.70;;
58581;SDS011;44361;51.476;5.700;2024-01-30T00:04:58;13.45;;;8.57;;
58581;SDS011;44361;51.476;5.700;2024-01-30T00:07:24;16.35;;;8.18;;
58581;SDS011;44361;51.476;5.700;2024-01-30T00:09:50;23.63;;;9.40;;
58581;SDS011;44361;51.476;5.700;2024-01-30T00:12:15;15.00;;;8.98;;
58581;SDS011;44361;51.476;5.700;2024-01-30T00:14:41;17.95;;;9.10;;
58581;SDS011;44361;51.476;5.700;2024-01-30T00:17:08;18.05;;;9.32;;
58581;SDS011;44361;51.476;5.700;2024-01-30T00:19:34;17.77;;;9.85;;
58581;SDS011;44361;51.476;5.700;2024-01-30T00:22:00;16.05;;;8.70;;
58581;SDS011;44361;51.476;5.700;2024-01-30T00:24:25;16.38;;;9.30;;
58581;SDS011;44361;51.476;5.700;2024-01-30T00:26:51;16.27;;;9.15;;
58581;SDS011;44361;51.476;5.700;2024-01-30T00:29:17;15.38;;;8.68;;
58581;SDS011;44361;51.476;5.700;2024-01-30T00:31:44;22.02;;;9.43;;
58581;SDS011;44361;51.476;5.700;2024-01-30T00:34:10;17.73;;;9.95;;
58581;SDS011;44361;51.476;5.700;2024-01-30T00:36:36;16.55;;;9.60;;
58581;SDS011;44361;51.476;5.700;2024-01-30T00:39:02;16.45;;;9.85;;
58581;SDS011;44361;51.476;5.700;2024-01-30T00:41:31;18.05;;;10.02;;
58581;SDS011;44361;51.476;5.700;2024-01-30T00:43:57;17.85;;;10.23;;
58581;SDS011;44361;51.476;5.700;2024-01-30T00:46:22;18.50;;;10.38;;
58581;SDS011;44361;51.476;5.700;2024-01-30T00:48:48;17.85;;;9.73;;
58581;SDS011;44361;51.476;5.700;2024-01-30T00:51:13;17.65;;;10.40;;
58581;SDS011;44361;51.476;5.700;2024-01-30T00:53:39;15.18;;;9.50;;
58581;SDS011;44361;51.476;5.700;2024-01-30T00:56:06;21.05;;;9.55;;
58581;SDS011;44361;51.476;5.700;2024-01-30T00:58:32;19.42;;;9.77;;
58581;SDS011;44361;51.476;5.700;2024-01-30T01:00:58;15.77;;;10.27;;
58581;SDS011;44361;51.476;5.700;2024-01-30T01:03:24;19.45;;;10.15;;
58581;SDS011;44361;51.476;5.700;2024-01-30T01:05:49;22.23;;;11.30;;
58581;SDS011;44361;51.476;5.700;2024-01-30T01:08:15;17.77;;;10.60;;
58581;SDS011;44361;51.476;5.700;2024-01-30T01:10:40;24.90;;;11.35;;
58581;SDS011;44361;51.476;5.700;2024-01-30T01:13:06;20.08;;;11.13;;
58581;SDS011;44361;51.476;5.700;2024-01-30T01:15:31;22.17;;;11.38;;
58581;SDS011;44361;51.476;5.700;2024-01-30T01:17:57;20.95;;;11.40;;
58581;SDS011;44361;51.476;5.700;2024-01-30T01:20:23;19.15;;;10.98;;
58581;SDS011;44361;51.476;5.700;2024-01-30T01:22:48;23.92;;;10.75;;
58581;SDS011;44361;51.476;5.700;2024-01-30T01:25:14;19.27;;;11.10;;
58581;SDS011;44361;51.476;5.700;2024-01-30T01:27:40;23.23;;;11.60;;
58581;SDS011;44361;51.476;5.700;2024-01-30T01:30:10;21.58;;;11.68;;
58581;SDS011;44361;51.476;5.700;2024-01-30T01:32:36;19.10;;;11.23;;
58581;SDS011;44361;51.476;5.700;2024-01-30T01:35:03;21.38;;;11.32;;
58581;SDS011;44361;51.476;5.700;2024-01-30T01:37:30;20.98;;;10.90;;
58581;SDS011;44361;51.476;5.700;2024-01-30T01:39:56;19.92;;;10.65;;
58581;SDS011;44361;51.476;5.700;2024-01-30T01:42:21;18.65;;;10.68;;
58581;SDS011;44361;51.476;5.700;2024-01-30T01:44:47;25.90;;;11.00;;
58581;SDS011;44361;51.476;5.700;2024-01-30T01:47:13;19.92;;;10.43;;
58581;SDS011;44361;51.476;5.700;2024-01-30T01:49:39;17.08;;;10.63;;
58581;SDS011;44361;51.476;5.700;2024-01-30T01:52:05;20.42;;;10.90;;
58581;SDS011;44361;51.476;5.700;2024-01-30T01:54:32;17.40;;;10.98;;
58581;SDS011;44361;51.476;5.700;2024-01-30T01:56:58;20.63;;;11.13;;
58581;SDS011;44361;51.476;5.700;2024-01-30T01:59:24;17.90;;;10.63;;
58581;SDS011;44361;51.476;5.700;2024-01-30T02:01:50;24.55;;;10.82;;
58581;SDS011;44361;51.476;5.700;2024-01-30T02:04:18;20.65;;;11.18;;
58581;SDS011;44361;51.476;5.700;2024-01-30T02:06:43;18.80;;;10.05;;
58581;SDS011;44361;51.476;5.700;2024-01-30T02:09:09;21.02;;;10.57;;
58581;SDS011;44361;51.476;5.700;2024-01-30T02:11:34;19.40;;;10.68;;
58581;SDS011;44361;51.476;5.700;2024-01-30T02:14:03;18.88;;;11.15;;
58581;SDS011;44361;51.476;5.700;2024-01-30T02:16:30;20.83;;;11.20;;
58581;SDS011;44361;51.476;5.700;2024-01-30T02:18:56;17.25;;;10.13;;
58581;SDS011;44361;51.476;5.700;2024-01-30T02:21:21;22.20;;;10.65;;
58581;SDS011;44361;51.476;5.700;2024-01-30T02:23:47;21.13;;;11.05;;
58581;SDS011;44361;51.476;5.700;2024-01-30T02:26:14;20.08;;;10.80;;
58581;SDS011;44361;51.476;5.700;2024-01-30T02:28:40;21.75;;;10.60;;
58581;SDS011;44361;51.476;5.700;2024-01-30T02:31:05;17.92;;;9.73;;
58581;SDS011;44361;51.476;5.700;2024-01-30T02:33:31;18.67;;;10.27;;
58581;SDS011;44361;51.476;5.700;2024-01-30T02:35:57;17.48;;;10.65;;
58581;SDS011;44361;51.476;5.700;2024-01-30T02:38:23;20.05;;;11.00;;
58581;SDS011;44361;51.476;5.700;2024-01-30T02:40:48;20.73;;;10.48;;
58581;SDS011;44361;51.476;5.700;2024-01-30T02:43:15;17.98;;;10.65;;
58581;SDS011;44361;51.476;5.700;2024-01-30T02:45:41;26.02;;;11.52;;
58581;SDS011;44361;51.476;5.700;2024-01-30T02:48:06;18.02;;;10.57;;
58581;SDS011;44361;51.476;5.700;2024-01-30T02:50:32;19.17;;;10.25;;
58581;SDS011;44361;51.476;5.700;2024-01-30T02:52:58;17.73;;;10.55;;
58581;SDS011;44361;51.476;5.700;2024-01-30T02:55:23;17.17;;;10.38;;
58581;SDS011;44361;51.476;5.700;2024-01-30T02:57:49;19.08;;;10.00;;
58581;SDS011;44361;51.476;5.700;2024-01-30T03:00:14;17.65;;;10.40;;
58581;SDS011;44361;51.476;5.700;2024-01-30T03:02:40;16.35;;;9.82;;
58581;SDS011;44361;51.476;5.700;2024-01-30T03:05:05;18.30;;;11.25;;
58581;SDS011;44361;51.476;5.700;2024-01-30T03:07:33;21.60;;;10.25;;
58581;SDS011;44361;51.476;5.700;2024-01-30T03:09:59;22.67;;;11.60;;
58581;SDS011;44361;51.476;5.700;2024-01-30T03:12:24;18.25;;;10.32;;
58581;SDS011;44361;51.476;5.700;2024-01-30T03:14:50;22.73;;;10.90;;
58581;SDS011;44361;51.476;5.700;2024-01-30T03:17:16;19.48;;;10.60;;
58581;SDS011;44361;51.476;5.700;2024-01-30T03:19:41;19.80;;;9.90;;
58581;SDS011;44361;51.476;5.700;2024-01-30T03:22:07;19.33;;;10.57;;
58581;SDS011;44361;51.476;5.700;2024-01-30T03:24:32;20.70;;;10.82;;
58581;SDS011;44361;51.476;5.700;2024-01-30T03:26:58;18.33;;;9.95;;
58581;SDS011;44361;51.476;5.700;2024-01-30T03:29:24;17.88;;;10.55;;
58581;SDS011;44361;51.476;5.700;2024-01-30T03:31:49;16.75;;;9.77;;
58581;SDS011;44361;51.476;5.700;2024-01-30T03:34:15;19.23;;;10.07;;
58581;SDS011;44361;51.476;5.700;2024-01-30T03:36:40;16.15;;;8.98;;
58581;SDS011;44361;51.476;5.700;2024-01-30T03:39:06;16.88;;;9.68;;
58581;SDS011;44361;51.476;5.700;2024-01-30T03:41:31;16.02;;;9.20;;
58581;SDS011;44361;51.476;5.700;2024-01-30T03:43:57;16.08;;;9.20;;
58581;SDS011;44361;51.476;5.700;2024-01-30T03:46:23;16.00;;;9.05;;
58581;SDS011;44361;51.476;5.700;2024-01-30T03:48:49;20.73;;;9.38;;
58581;SDS011;44361;51.476;5.700;2024-01-30T03:51:15;15.80;;;9.45;;
58581;SDS011;44361;51.476;5.700;2024-01-30T03:53:44;17.50;;;9.30;;
58581;SDS011;44361;51.476;5.700;2024-01-30T03:56:11;18.17;;;9.40;;
58581;SDS011;44361;51.476;5.700;2024-01-30T03:58:38;17.13;;;9.20;;
58581;SDS011;44361;51.476;5.700;2024-01-30T04:01:04;13.98;;;9.20;;
58581;SDS011;44361;51.476;5.700;2024-01-30T04:03:29;15.63;;;8.55;;
58581;SDS011;44361;51.476;5.700;2024-01-30T04:05:55;15.57;;;9.50;;
58581;SDS011;44361;51.476;5.700;2024-01-30T04:08:20;16.83;;;9.10;;
58581;SDS011;44361;51.476;5.700;2024-01-30T04:10:46;14.95;;;8.40;;
58581;SDS011;44361;51.476;5.700;2024-01-30T04:13:12;19.63;;;9.15;;
58581;SDS011;44361;51.476;5.700;2024-01-30T04:15:38;15.35;;;8.82;;
58581;SDS011;44361;51.476;5.700;2024-01-30T04:18:04;15.73;;;10.18;;
58581;SDS011;44361;51.476;5.700;2024-01-30T04:20:30;17.40;;;9.05;;
58581;SDS011;44361;51.476;5.700;2024-01-30T04:22:55;18.13;;;8.77;;
58581;SDS011;44361;51.476;5.700;2024-01-30T04:25:21;15.05;;;7.63;;
58581;SDS011;44361;51.476;5.700;2024-01-30T04:27:46;14.05;;;8.07;;
58581;SDS011;44361;51.476;5.700;2024-01-30T04:30:13;17.77;;;8.23;;
58581;SDS011;44361;51.476;5.700;2024-01-30T04:32:38;16.88;;;8.75;;
58581;SDS011;44361;51.476;5.700;2024-01-30T04:35:04;13.73;;;7.60;;
58581;SDS011;44361;51.476;5.700;2024-01-30T04:37:30;13.75;;;8.18;;
58581;SDS011;44361;51.476;5.700;2024-01-30T04:39:56;13.25;;;7.28;;
58581;SDS011;44361;51.476;5.700;2024-01-30T04:42:21;15.63;;;7.60;;
58581;SDS011;44361;51.476;5.700;2024-01-30T04:44:47;13.15;;;7.82;;
58581;SDS011;44361;51.476;5.700;2024-01-30T04:47:12;15.25;;;8.27;;
58581;SDS011;44361;51.476;5.700;2024-01-30T04:49:38;16.80;;;7.53;;
58581;SDS011;44361;51.476;5.700;2024-01-30T04:52:07;11.02;;;6.97;;
58581;SDS011;44361;51.476;5.700;2024-01-30T04:54:34;12.15;;;7.78;;
58581;SDS011;44361;51.476;5.700;2024-01-30T04:57:00;17.88;;;8.23;;
58581;SDS011;44361;51.476;5.700;2024-01-30T04:59:26;14.40;;;7.82;;
58581;SDS011;44361;51.476;5.700;2024-01-30T05:01:52;15.95;;;8.02;;
58581;SDS011;44361;51.476;5.700;2024-01-30T05:04:18;13.88;;;8.23;;
58581;SDS011;44361;51.476;5.700;2024-01-30T05:06:44;18.23;;;8.70;;
58581;SDS011;44361;51.476;5.700;2024-01-30T05:09:11;16.13;;;8.38;;
58581;SDS011;44361;51.476;5.700;2024-01-30T05:11:38;18.25;;;8.13;;
58581;SDS011;44361;51.476;5.700;2024-01-30T05:14:05;14.55;;;8.20;;
58581;SDS011;44361;51.476;5.700;2024-01-30T05:16:31;13.05;;;7.53;;
58581;SDS011;44361;51.476;5.700;2024-01-30T05:18:57;17.13;;;8.45;;
58581;SDS011;44361;51.476;5.700;2024-01-30T05:21:23;12.57;;;7.78;;
58581;SDS011;44361;51.476;5.700;2024-01-30T05:23:48;15.00;;;7.18;;
58581;SDS011;44361;51.476;5.700;2024-01-30T05:26:14;11.73;;;7.57;;
58581;SDS011;44361;51.476;5.700;2024-01-30T05:28:39;14.68;;;7.65;;
58581;SDS011;44361;51.476;5.700;2024-01-30T05:31:05;13.88;;;7.53;;
58581;SDS011;44361;51.476;5.700;2024-01-30T05:33:31;15.43;;;8.10;;
58581;SDS011;44361;51.476;5.700;2024-01-30T05:35:56;14.00;;;7.65;;
58581;SDS011;44361;51.476;5.700;2024-01-30T05:38:22;14.60;;;7.50;;
58581;SDS011;44361;51.476;5.700;2024-01-30T05:40:47;15.02;;;7.63;;
58581;SDS011;44361;51.476;5.700;2024-01-30T05:43:13;17.60;;;7.97;;
58581;SDS011;44361;51.476;5.700;2024-01-30T05:45:38;14.85;;;7.40;;
58581;SDS011;44361;51.476;5.700;2024-01-30T05:48:04;15.93;;;7.97;;
58581;SDS011;44361;51.476;5.700;2024-01-30T05:50:30;13.65;;;7.18;;
58581;SDS011;44361;51.476;5.700;2024-01-30T05:52:56;13.05;;;7.38;;
58581;SDS011;44361;51.476;5.700;2024-01-30T05:55:21;14.18;;;7.35;;
58581;SDS011;44361;51.476;5.700;2024-01-30T05:57:47;15.38;;;7.57;;
58581;SDS011;44361;51.476;5.700;2024-01-30T06:00:13;11.10;;;6.30;;
58581;SDS011;44361;51.476;5.700;2024-01-30T06:02:39;15.07;;;7.50;;
58581;SDS011;44361;51.476;5.700;2024-01-30T06:05:04;13.98;;;7.30;;
58581;SDS011;44361;51.476;5.700;2024-01-30T06:07:31;11.57;;;7.00;;
58581;SDS011;44361;51.476;5.700;2024-01-30T06:09:56;12.50;;;6.95;;
58581;SDS011;44361;51.476;5.700;2024-01-30T06:12:22;11.82;;;7.25;;
58581;SDS011;44361;51.476;5.700;2024-01-30T06:14:48;11.68;;;7.25;;
58581;SDS011;44361;51.476;5.700;2024-01-30T06:17:13;12.27;;;6.93;;
58581;SDS011;44361;51.476;5.700;2024-01-30T06:19:39;13.70;;;7.22;;
58581;SDS011;44361;51.476;5.700;2024-01-30T06:22:04;13.95;;;7.35;;
58581;SDS011;44361;51.476;5.700;2024-01-30T06:24:30;16.75;;;8.10;;
58581;SDS011;44361;51.476;5.700;2024-01-30T06:26:56;12.82;;;8.10;;
58581;SDS011;44361;51.476;5.700;2024-01-30T06:29:22;12.50;;;7.30;;
58581;SDS011;44361;51.476;5.700;2024-01-30T06:31:49;14.85;;;8.27;;
58581;SDS011;44361;51.476;5.700;2024-01-30T06:34:15;16.33;;;7.30;;
58581;SDS011;44361;51.476;5.700;2024-01-30T06:36:40;16.95;;;7.78;;
58581;SDS011;44361;51.476;5.700;2024-01-30T06:39:06;14.85;;;8.05;;
58581;SDS011;44361;51.476;5.700;2024-01-30T06:41:32;14.20;;;7.30;;
58581;SDS011;44361;51.476;5.700;2024-01-30T06:43:58;15.52;;;7.60;;
58581;SDS011;44361;51.476;5.700;2024-01-30T06:46:23;16.02;;;7.38;;
58581;SDS011;44361;51.476;5.700;2024-01-30T06:48:49;15.90;;;7.65;;
58581;SDS011;44361;51.476;5.700;2024-01-30T06:51:14;14.95;;;7.45;;
58581;SDS011;44361;51.476;5.700;2024-01-30T06:53:41;13.10;;;7.57;;
58581;SDS011;44361;51.476;5.700;2024-01-30T06:56:07;10.40;;;7.05;;
58581;SDS011;44361;51.476;5.700;2024-01-30T06:58:33;13.82;;;7.43;;
58581;SDS011;44361;51.476;5.700;2024-01-30T07:00:58;13.65;;;6.38;;
58581;SDS011;44361;51.476;5.700;2024-01-30T07:03:24;12.75;;;6.88;;
58581;SDS011;44361;51.476;5.700;2024-01-30T07:05:50;13.00;;;6.53;;
58581;SDS011;44361;51.476;5.700;2024-01-30T07:08:16;14.52;;;6.15;;
58581;SDS011;44361;51.476;5.700;2024-01-30T07:10:44;12.13;;;6.20;;
58581;SDS011;44361;51.476;5.700;2024-01-30T07:13:10;12.20;;;6.20;;
58581;SDS011;44361;51.476;5.700;2024-01-30T07:15:36;9.48;;;6.20;;
58581;SDS011;44361;51.476;5.700;2024-01-30T07:18:02;11.25;;;5.82;;
58581;SDS011;44361;51.476;5.700;2024-01-30T07:20:29;11.20;;;5.97;;
58581;SDS011;44361;51.476;5.700;2024-01-30T07:22:57;14.00;;;6.32;;
58581;SDS011;44361;51.476;5.700;2024-01-30T07:25:23;13.77;;;6.20;;
58581;SDS011;44361;51.476;5.700;2024-01-30T07:27:51;14.23;;;6.93;;
58581;SDS011;44361;51.476;5.700;2024-01-30T07:30:17;12.45;;;6.03;;
58581;SDS011;44361;51.476;5.700;2024-01-30T07:32:43;13.20;;;5.85;;
58581;SDS011;44361;51.476;5.700;2024-01-30T07:35:09;13.63;;;7.05;;
58581;SDS011;44361;51.476;5.700;2024-01-30T07:37:34;10.63;;;5.65;;
58581;SDS011;44361;51.476;5.700;2024-01-30T07:40:00;15.25;;;6.80;;
58581;SDS011;44361;51.476;5.700;2024-01-30T07:42:27;9.50;;;5.47;;
58581;SDS011;44361;51.476;5.700;2024-01-30T07:44:52;11.95;;;5.65;;
58581;SDS011;44361;51.476;5.700;2024-01-30T07:47:18;10.38;;;5.32;;
58581;SDS011;44361;51.476;5.700;2024-01-30T07:49:44;10.48;;;4.93;;
58581;SDS011;44361;51.476;5.700;2024-01-30T07:52:09;10.43;;;5.20;;
58581;SDS011;44361;51.476;5.700;2024-01-30T07:54:53;13.55;;;5.70;;
58581;SDS011;44361;51.476;5.700;2024-01-30T07:57:20;10.73;;;5.70;;
58581;SDS011;44361;51.476;5.700;2024-01-30T07:59:45;8.60;;;5.32;;
58581;SDS011;44361;51.476;5.700;2024-01-30T08:02:12;11.00;;;5.18;;
58581;SDS011;44361;51.476;5.700;2024-01-30T08:04:38;11.27;;;5.15;;
58581;SDS011;44361;51.476;5.700;2024-01-30T08:07:04;7.10;;;4.82;;
58581;SDS011;44361;51.476;5.700;2024-01-30T08:09:29;11.98;;;6.00;;
58581;SDS011;44361;51.476;5.700;2024-01-30T08:11:55;10.18;;;5.50;;
58581;SDS011;44361;51.476;5.700;2024-01-30T08:14:20;11.25;;;5.47;;
58581;SDS011;44361;51.476;5.700;2024-01-30T08:16:46;14.18;;;5.32;;
58581;SDS011;44361;51.476;5.700;2024-01-30T08:19:12;12.40;;;5.80;;
58581;SDS011;44361;51.476;5.700;2024-01-30T08:21:37;11.23;;;5.32;;
58581;SDS011;44361;51.476;5.700;2024-01-30T08:24:03;11.45;;;6.03;;
58581;SDS011;44361;51.476;5.700;2024-01-30T08:26:29;9.27;;;5.35;;
58581;SDS011;44361;51.476;5.700;2024-01-30T08:28:55;13.02;;;5.82;;
58581;SDS011;44361;51.476;5.700;2024-01-30T08:31:21;10.23;;;5.88;;
58581;SDS011;44361;51.476;5.700;2024-01-30T08:33:46;10.07;;;5.43;;
58581;SDS011;44361;51.476;5.700;2024-01-30T08:36:12;10.95;;;5.38;;
58581;SDS011;44361;51.476;5.700;2024-01-30T08:38:38;12.13;;;4.55;;
58581;SDS011;44361;51.476;5.700;2024-01-30T08:41:03;11.77;;;5.20;;
58581;SDS011;44361;51.476;5.700;2024-01-30T08:43:30;11.60;;;5.60;;
58581;SDS011;44361;51.476;5.700;2024-01-30T08:45:56;10.40;;;5.15;;
58581;SDS011;44361;51.476;5.700;2024-01-30T08:48:27;10.77;;;5.00;;
58581;SDS011;44361;51.476;5.700;2024-01-30T08:50:53;8.57;;;5.03;;
58581;SDS011;44361;51.476;5.700;2024-01-30T08:53:18;9.80;;;5.22;;
58581;SDS011;44361;51.476;5.700;2024-01-30T08:55:44;8.73;;;5.65;;
58581;SDS011;44361;51.476;5.700;2024-01-30T08:58:10;9.32;;;5.00;;
58581;SDS011;44361;51.476;5.700;2024-01-30T09:00:36;10.90;;;4.90;;
58581;SDS011;44361;51.476;5.700;2024-01-30T09:03:02;11.10;;;5.45;;
58581;SDS011;44361;51.476;5.700;2024-01-30T09:05:28;9.80;;;5.10;;
58581;SDS011;44361;51.476;5.700;2024-01-30T09:07:54;14.07;;;5.40;;
58581;SDS011;44361;51.476;5.700;2024-01-30T09:10:19;13.70;;;5.28;;
58581;SDS011;44361;51.476;5.700;2024-01-30T09:12:45;9.60;;;5.07;;
58581;SDS011;44361;51.476;5.700;2024-01-30T09:15:11;11.20;;;5.80;;
58581;SDS011;44361;51.476;5.700;2024-01-30T09:17:37;10.35;;;5.45;;
58581;SDS011;44361;51.476;5.700;2024-01-30T09:20:03;12.05;;;5.50;;
58581;SDS011;44361;51.476;5.700;2024-01-30T09:22:29;10.23;;;5.07;;
58581;SDS011;44361;51.476;5.700;2024-01-30T09:24:55;8.75;;;5.20;;
58581;SDS011;44361;51.476;5.700;2024-01-30T09:27:20;9.10;;;5.57;;
58581;SDS011;44361;51.476;5.700;2024-01-30T09:29:46;10.57;;;4.95;;
58581;SDS011;44361;51.476;5.700;2024-01-30T09:32:11;11.23;;;5.30;;
58581;SDS011;44361;51.476;5.700;2024-01-30T09:34:37;10.40;;;5.68;;
58581;SDS011;44361;51.476;5.700;2024-01-30T09:37:04;11.85;;;5.38;;
58581;SDS011;44361;51.476;5.700;2024-01-30T09:39:30;11.73;;;5.25;;
58581;SDS011;44361;51.476;5.700;2024-01-30T09:42:00;14.57;;;6.03;;
58581;SDS011;44361;51.476;5.700;2024-01-30T09:46:55;12.93;;;5.35;;
58581;SDS011;44361;51.476;5.700;2024-01-30T09:49:23;11.45;;;6.47;;
58581;SDS011;44361;51.476;5.700;2024-01-30T09:51:50;9.65;;;5.35;;
58581;SDS011;44361;51.476;5.700;2024-01-30T09:54:18;12.50;;;6.07;;
58581;SDS011;44361;51.476;5.700;2024-01-30T09:56:44;11.02;;;6.35;;
58581;SDS011;44361;51.476;5.700;2024-01-30T09:59:10;10.65;;;5.38;;
58581;SDS011;44361;51.476;5.700;2024-01-30T10:01:36;12.68;;;6.32;;
58581;SDS011;44361;51.476;5.700;2024-01-30T10:04:01;11.10;;;6.38;;
58581;SDS011;44361;51.476;5.700;2024-01-30T10:06:27;12.75;;;6.38;;
58581;SDS011;44361;51.476;5.700;2024-01-30T10:08:53;12.68;;;5.55;;
58581;SDS011;44361;51.476;5.700;2024-01-30T10:11:19;10.38;;;6.32;;
58581;SDS011;44361;51.476;5.700;2024-01-30T10:13:45;14.15;;;6.25;;
58581;SDS011;44361;51.476;5.700;2024-01-30T10:16:13;13.13;;;6.05;;
58581;SDS011;44361;51.476;5.700;2024-01-30T10:18:40;11.07;;;6.18;;
58581;SDS011;44361;51.476;5.700;2024-01-30T10:21:06;12.77;;;6.55;;
58581;SDS011;44361;51.476;5.700;2024-01-30T10:23:33;12.55;;;6.30;;
58581;SDS011;44361;51.476;5.700;2024-01-30T10:25:58;14.35;;;5.88;;
58581;SDS011;44361;51.476;5.700;2024-01-30T10:28:26;8.55;;;5.68;;
58581;SDS011;44361;51.476;5.700;2024-01-30T10:31:00;16.20;;;6.25;;
58581;SDS011;44361;51.476;5.700;2024-01-30T10:33:28;11.00;;;5.20;;
58581;SDS011;44361;51.476;5.700;2024-01-30T10:36:00;12.45;;;4.85;;
58581;SDS011;44361;51.476;5.700;2024-01-30T10:38:28;9.50;;;5.05;;
58581;SDS011;44361;51.476;5.700;2024-01-30T10:40:58;10.20;;;4.80;;
58581;SDS011;44361;51.476;5.700;2024-01-30T10:43:32;11.27;;;5.93;;
58581;SDS011;44361;51.476;5.700;2024-01-30T10:46:07;9.80;;;5.95;;
58581;SDS011;44361;51.476;5.700;2024-01-30T10:48:41;12.75;;;5.32;;
58581;SDS011;44361;51.476;5.700;2024-01-30T10:51:09;14.55;;;5.32;;
58581;SDS011;44361;51.476;5.700;2024-01-30T10:53:36;8.48;;;5.18;;
58581;SDS011;44361;51.476;5.700;2024-01-30T10:56:02;13.70;;;5.20;;
58581;SDS011;44361;51.476;5.700;2024-01-30T10:58:29;12.70;;;5.35;;
58581;SDS011;44361;51.476;5.700;2024-01-30T11:00:55;13.05;;;5.60;;
58581;SDS011;44361;51.476;5.700;2024-01-30T11:03:21;10.93;;;5.38;;
58581;SDS011;44361;51.476;5.700;2024-01-30T11:05:51;17.30;;;6.00;;
58581;SDS011;44361;51.476;5.700;2024-01-30T11:08:24;11.02;;;5.20;;
58581;SDS011;44361;51.476;5.700;2024-01-30T11:10:55;10.68;;;5.32;;
58581;SDS011;44361;51.476;5.700;2024-01-30T11:13:22;10.35;;;5.38;;
58581;SDS011;44361;51.476;5.700;2024-01-30T11:15:55;15.00;;;5.72;;
58581;SDS011;44361;51.476;5.700;2024-01-30T11:18:24;14.68;;;5.22;;
58581;SDS011;44361;51.476;5.700;2024-01-30T11:20:50;10.75;;;5.63;;
58581;SDS011;44361;51.476;5.700;2024-01-30T11:23:16;14.82;;;5.75;;
58581;SDS011;44361;51.476;5.700;2024-01-30T11:25:43;10.40;;;5.75;;
58581;SDS011;44361;51.476;5.700;2024-01-30T11:28:13;14.05;;;5.18;;
58581;SDS011;44361;51.476;5.700;2024-01-30T11:30:43;11.55;;;5.65;;
58581;SDS011;44361;51.476;5.700;2024-01-30T11:33:10;12.27;;;6.03;;
58581;SDS011;44361;51.476;5.700;2024-01-30T11:35:38;12.48;;;5.75;;
58581;SDS011;44361;51.476;5.700;2024-01-30T11:38:07;16.50;;;5.60;;
58581;SDS011;44361;51.476;5.700;2024-01-30T11:40:34;12.50;;;5.43;;
58581;SDS011;44361;51.476;5.700;2024-01-30T11:43:01;11.93;;;6.00;;
58581;SDS011;44361;51.476;5.700;2024-01-30T11:45:29;12.68;;;4.97;;
58581;SDS011;44361;51.476;5.700;2024-01-30T11:47:56;11.13;;;5.25;;
58581;SDS011;44361;51.476;5.700;2024-01-30T11:50:22;11.38;;;5.90;;
58581;SDS011;44361;51.476;5.700;2024-01-30T11:52:49;11.85;;;5.63;;
58581;SDS011;44361;51.476;5.700;2024-01-30T11:55:15;9.80;;;4.93;;
58581;SDS011;44361;51.476;5.700;2024-01-30T11:57:41;8.02;;;5.07;;
58581;SDS011;44361;51.476;5.700;2024-01-30T12:00:13;14.82;;;5.75;;
58581;SDS011;44361;51.476;5.700;2024-01-30T12:02:43;7.80;;;4.18;;
58581;SDS011;44361;51.476;5.700;2024-01-30T12:05:14;11.27;;;4.63;;
58581;SDS011;44361;51.476;5.700;2024-01-30T12:07:40;17.88;;;5.53;;
58581;SDS011;44361;51.476;5.700;2024-01-30T12:10:09;9.52;;;4.63;;
58581;SDS011;44361;51.476;5.700;2024-01-30T12:12:36;15.23;;;4.88;;
58581;SDS011;44361;51.476;5.700;2024-01-30T12:15:02;13.70;;;4.82;;
58581;SDS011;44361;51.476;5.700;2024-01-30T12:17:28;8.82;;;3.85;;
58581;SDS011;44361;51.476;5.700;2024-01-30T12:22:31;11.70;;;3.88;;
58581;SDS011;44361;51.476;5.700;2024-01-30T12:24:58;11.02;;;3.17;;
58581;SDS011;44361;51.476;5.700;2024-01-30T12:27:25;11.25;;;3.92;;
58581;SDS011;44361;51.476;5.700;2024-01-30T12:29:55;8.65;;;3.22;;
58581;SDS011;44361;51.476;5.700;2024-01-30T12:32:22;9.75;;;3.42;;
58581;SDS011;44361;51.476;5.700;2024-01-30T12:34:48;9.07;;;3.20;;
58581;SDS011;44361;51.476;5.700;2024-01-30T12:37:13;5.85;;;3.08;;
58581;SDS011;44361;51.476;5.700;2024-01-30T12:39:43;8.40;;;3.45;;
58581;SDS011;44361;51.476;5.700;2024-01-30T12:42:09;8.27;;;3.25;;
58581;SDS011;44361;51.476;5.700;2024-01-30T12:44:35;11.52;;;3.80;;
58581;SDS011;44361;51.476;5.700;2024-01-30T12:47:02;11.40;;;4.20;;
58581;SDS011;44361;51.476;5.700;2024-01-30T12:49:28;12.02;;;4.38;;
58581;SDS011;44361;51.476;5.700;2024-01-30T12:51:54;8.77;;;4.32;;
58581;SDS011;44361;51.476;5.700;2024-01-30T12:54:20;13.55;;;4.28;;
58581;SDS011;44361;51.476;5.700;2024-01-30T12:56:45;7.53;;;3.85;;
58581;SDS011;44361;51.476;5.700;2024-01-30T12:59:11;10.05;;;3.78;;
58581;SDS011;44361;51.476;5.700;2024-01-30T13:01:36;12.05;;;4.40;;
58581;SDS011;44361;51.476;5.700;2024-01-30T13:04:02;7.65;;;3.08;;
58581;SDS011;44361;51.476;5.700;2024-01-30T13:06:28;8.88;;;2.92;;
58581;SDS011;44361;51.476;5.700;2024-01-30T13:08:54;6.90;;;2.60;;
58581;SDS011;44361;51.476;5.700;2024-01-30T13:11:19;4.57;;;2.00;;
58581;SDS011;44361;51.476;5.700;2024-01-30T13:13:45;6.65;;;1.70;;
58581;SDS011;44361;51.476;5.700;2024-01-30T13:16:11;5.78;;;1.30;;
58581;SDS011;44361;51.476;5.700;2024-01-30T13:18:36;5.18;;;1.50;;
58581;SDS011;44361;51.476;5.700;2024-01-30T13:21:02;2.88;;;0.85;;
58581;SDS011;44361;51.476;5.700;2024-01-30T13:23:28;4.85;;;1.00;;
58581;SDS011;44361;51.476;5.700;2024-01-30T13:25:53;3.55;;;0.70;;
58581;SDS011;44361;51.476;5.700;2024-01-30T13:28:22;2.05;;;0.40;;
58581;SDS011;44361;51.476;5.700;2024-01-30T13:30:48;2.72;;;0.40;;
58581;SDS011;44361;51.476;5.700;2024-01-30T13:33:13;3.03;;;0.50;;
58581;SDS011;44361;51.476;5.700;2024-01-30T13:35:39;4.25;;;0.80;;
58581;SDS011;44361;51.476;5.700;2024-01-30T13:38:04;4.00;;;0.50;;
58581;SDS011;44361;51.476;5.700;2024-01-30T13:40:30;3.72;;;0.68;;
58581;SDS011;44361;51.476;5.700;2024-01-30T13:42:56;3.40;;;0.55;;
58581;SDS011;44361;51.476;5.700;2024-01-30T13:45:21;1.55;;;0.40;;
58581;SDS011;44361;51.476;5.700;2024-01-30T13:47:47;3.38;;;0.40;;
58581;SDS011;44361;51.476;5.700;2024-01-30T13:50:12;4.13;;;0.82;;
58581;SDS011;44361;51.476;5.700;2024-01-30T13:52:40;4.10;;;0.60;;
58581;SDS011;44361;51.476;5.700;2024-01-30T13:55:06;4.60;;;0.95;;
58581;SDS011;44361;51.476;5.700;2024-01-30T13:57:32;1.45;;;0.50;;
58581;SDS011;44361;51.476;5.700;2024-01-30T14:00:00;1.88;;;0.50;;
58581;SDS011;44361;51.476;5.700;2024-01-30T14:02:26;5.60;;;1.02;;
58581;SDS011;44361;51.476;5.700;2024-01-30T14:04:52;4.47;;;0.47;;
58581;SDS011;44361;51.476;5.700;2024-01-30T14:07:17;6.65;;;0.60;;
58581;SDS011;44361;51.476;5.700;2024-01-30T14:09:43;3.35;;;0.63;;
58581;SDS011;44361;51.476;5.700;2024-01-30T14:12:09;1.15;;;0.50;;
58581;SDS011;44361;51.476;5.700;2024-01-30T14:14:35;4.53;;;0.60;;
58581;SDS011;44361;51.476;5.700;2024-01-30T14:17:00;1.33;;;0.50;;
58581;SDS011;44361;51.476;5.700;2024-01-30T14:19:27;2.60;;;0.55;;
58581;SDS011;44361;51.476;5.700;2024-01-30T14:21:52;2.35;;;0.55;;
58581;SDS011;44361;51.476;5.700;2024-01-30T14:24:18;3.55;;;0.60;;
58581;SDS011;44361;51.476;5.700;2024-01-30T14:26:43;6.38;;;0.70;;
58581;SDS011;44361;51.476;5.700;2024-01-30T14:29:09;3.60;;;0.70;;
58581;SDS011;44361;51.476;5.700;2024-01-30T14:31:35;7.72;;;0.73;;
58581;SDS011;44361;51.476;5.700;2024-01-30T14:34:00;4.25;;;0.63;;